Flight Track Log - Related Links

Times and Time Zones

All times are in EDT time to prevent confusion due to time zone crossing. See the N465TP flight status page for this flight to view local times or setup timezone preferences in your user account.

Time Position Orientation Groundspeed Altitude Reporting Facility
EDT Latitude Longitude Course Direction KTS MPH feet Rate Location/Type
Tue 06:33:58 PM 45.8522 -108.5739 94° East 145 167 6,200  Level Salt Lake Center
Tue 06:35:00 PM 45.8489 -108.5083 94° East 164 189 7,500 1,258 Climbing Salt Lake Center
Tue 06:36:02 PM 45.8436 -108.4392 96° East 177 204 8,800 1,317 Climbing Salt Lake Center
Tue 06:37:03 PM 45.8247 -108.3636 110° East 187 215 10,200 1,317 Climbing Salt Lake Center
Tue 06:38:05 PM 45.8086 -108.2939 108° East 187 215 11,500 1,306 Climbing Salt Lake Center
Tue 06:39:07 PM 45.7903 -108.2147 108° East 195 224 12,900 1,355 Climbing Salt Lake Center
Tue 06:40:09 PM 45.7731 -108.1411 109° East 196 226 14,300 1,366 Climbing Salt Lake Center
Tue 06:41:10 PM 45.7533 -108.0586 109° East 203 234 15,700 1,366 Climbing Salt Lake Center
Tue 06:42:12 PM 45.7347 -107.9819 109° East 207 238 17,100 1,210 Climbing Salt Lake Center
Tue 06:43:14 PM 45.7150 -107.8964 108° East 210 242 18,200 878 Climbing Salt Lake Center
Tue 06:44:15 PM 45.6944 -107.8103 109° East 230 265 18,900 390 Climbing Salt Lake Center
Tue 06:45:17 PM 45.6717 -107.7142 109° East 252 290 19,000  Climbing Salt Lake Center
Tue 06:46:18 PM 45.6444 -107.5994 109° East 281 323 18,900  Descending Salt Lake Center
Tue 06:47:20 PM 45.6225 -107.5017 108° East 284 327 19,000 48 Climbing Salt Lake Center
Tue 06:48:22 PM 45.5961 -107.3958 110° East 282 325 19,000 -49 Level Salt Lake Center
Tue 06:49:23 PM 45.5706 -107.2903 109° East 281 323 18,900  Descending Salt Lake Center
Tue 06:50:25 PM 45.5394 -107.1636 109° East 282 325 19,000 48 Climbing Salt Lake Center
Tue 06:51:27 PM 45.5144 -107.0544 108° East 285 328 19,000  Level Salt Lake Center
Tue 06:52:28 PM 45.4869 -106.9456 110° East 288 331 19,000  Level Salt Lake Center
Tue 06:53:30 PM 45.4597 -106.8381 110° East 289 333 19,000  Level Salt Lake Center
Tue 06:54:32 PM 45.4325 -106.7297 110° East 290 334 19,000  Level Salt Lake Center
Tue 06:55:33 PM 45.4058 -106.6225 109° East 289 333 19,000  Level Salt Lake Center
Tue 06:56:35 PM 45.3789 -106.5147 110° East 289 333 19,000  Level Salt Lake Center
Tue 06:57:37 PM 45.3517 -106.4086 110° East 288 331 19,000  Level Salt Lake Center
Tue 06:58:38 PM 45.3197 -106.2819 110° East 286 329 19,000  Level Salt Lake Center
Tue 06:59:40 PM 45.2925 -106.1750 110° East 287 330 19,000 -49 Level Salt Lake Center
Tue 07:00:41 PM 45.2658 -106.0681 109° East 287 330 18,900 -634 Descending Salt Lake Center
Tue 07:01:43 PM 45.2394 -105.9603 109° East 288 331 17,700 -1,355 Descending Salt Lake Center
Tue 07:02:45 PM 45.2122 -105.8600 111° Southeast 283 326 16,100 -1,610 Descending Salt Lake Center
Tue 07:03:46 PM 45.1858 -105.7594 110° East 277 319 14,400 -1,672 Descending Salt Lake Center

Login

Don't have an account? Register now (free) for customized features, flight alerts, and more!